Data for 11/30/2010

Time Sea-Level Adjusted Pressure Absolute Pressure Temperature Relative Humidity Dew Point   
(mb) (inHg) (mb) (inHg) (C) (F) (%) (C) (F)
00:05 1025 30.27 854 25.22 -12.6 9.4 71 -16.8 1.7
00:10 1025 30.27 854 25.22 -12.6 9.3 73 -16.5 2.3
00:15 1025 30.27 854 25.22 -12.7 9.2 76 -16 3.1
00:20 1025 30.27 854 25.22 -12.8 8.9 73 -16.7 2
00:25 1025 30.27 854 25.22 -12.9 8.8 73 -16.8 1.8
00:30 1025 30.27 854 25.22 -12.9 8.7 75 -16.5 2.3
00:35 1025 30.27 854 25.22 -13 8.5 77 -16.3 2.6
00:40 1025 30.27 854 25.22 -13.5 7.7 77 -16.7 2
00:45 1025 30.27 854 25.22 -13.6 7.6 77 -16.8 1.8
00:50 1025 30.27 854 25.22 -13.5 7.6 80 -16.3 2.7
00:55 1025 30.27 854 25.22 -13.2 8.2 77 -16.4 2.5
01:00 1025 30.27 854 25.22 -13.1 8.4 76 -16.5 2.2
01:05 1025 30.27 854 25.22 -13.3 8.2 76 -16.7 2
01:10 1025 30.27 854 25.22 -13.3 8 77 -16.6 2.1
01:15 1025 30.27 854 25.22 -13.4 8 76 -16.7 2
01:20 1025 30.27 854 25.22 -13.4 7.8 79 -16.4 2.5
01:25 1025 30.27 854 25.22 -13.4 7.9 77 -16.6 2
01:30 1025 30.27 854 25.22 -13.6 7.5 77 -16.8 1.8
01:35 1025 30.27 854 25.22 -13.6 7.5 76 -16.9 1.6
01:40 1025 30.27 854 25.22 -13.7 7.4 75 -17.2 1
01:45 1025 30.27 854 25.22 -13.7 7.4 73 -17.5 0.5
01:50 1025 30.27 854 25.22 -14 6.9 75 -17.5 0.5
01:55 1025 30.27 854 25.22 -14 6.8 75 -17.5 0.4
02:00 1025 30.27 854 25.22 -13.9 7 75 -17.4 0.7
02:05 1025 30.27 854 25.22 -13.3 8 73 -17.1 1.2
02:10 1025 30.27 854 25.22 -13.8 7.2 77 -17 1.4
02:15 1025 30.27 854 25.22 -13.8 7.1 77 -17.1 1.3
02:20 1025 30.27 854 25.22 -14.3 6.2 79 -17.2 1.1
02:25 1025 30.27 854 25.22 -14.2 6.4 78 -17.3 0.8
02:30 1025 30.27 854 25.22 -14.1 6.6 78 -17.2 1.1
02:35 1025 30.27 854 25.22 -14.1 6.6 77 -17.3 0.8
02:40 1025 30.27 854 25.22 -13.9 6.9 77 -17.2 1.1
02:45 1025 30.27 854 25.22 -14 6.7 77 -17.2 1.1
02:50 1025 30.27 854 25.22 -13.9 7 76 -17.2 1
02:55 1025 30.27 854 25.22 -14 6.9 77 -17.1 1.2
03:00 1025 30.27 854 25.22 -13.9 7 77 -17.1 1.2
03:05 1025 30.27 854 25.22 -13.9 6.9 77 -17.1 1.3
03:10 1025 30.27 854 25.22 -14.2 6.5 77 -17.3 0.9
03:15 1025 30.27 854 25.22 -14.5 5.9 77 -17.6 0.2
03:20 1025 30.27 854 25.22 -14.3 6.3 79 -17.2 1
03:25 1025 30.27 854 25.22 -14.2 6.4 78 -17.2 1
03:30 1025 30.27 854 25.22 -14.3 6.3 79 -17.2 1
03:35 1025 30.27 854 25.22 -14 6.8 78 -17 1.5
03:40 1025 30.27 854 25.22 -13.8 7.2 78 -16.8 1.8
03:45 1025 30.27 854 25.22 -13.7 7.3 78 -16.8 1.7
03:50 1025 30.27 854 25.22 -13.9 7 80 -16.7 1.9
03:55 1024 30.24 854 25.22 -13.8 7.1 79 -16.7 1.9
04:00 1024 30.24 854 25.22 -13.8 7.2 79 -16.7 2
04:05 1024 30.24 854 25.22 -13.5 7.7 78 -16.5 2.2
04:10 1024 30.24 854 25.22 -13.5 7.7 78 -16.5 2.3
04:15 1024 30.24 854 25.22 -13.4 7.9 78 -16.4 2.5
04:20 1024 30.24 854 25.22 -13.2 8.3 78 -16.3 2.7
04:25 1024 30.24 854 25.22 -12.9 8.8 75 -16.5 2.3
04:30 1024 30.24 854 25.22 -13.4 7.8 76 -16.7 1.9
04:35 1024 30.24 854 25.22 -13.7 7.4 78 -16.8 1.8
04:40 1024 30.24 854 25.22 -13.2 8.3 75 -16.8 1.8
04:45 1024 30.24 854 25.22 -13.3 8.1 76 -16.7 1.9
04:50 1024 30.24 854 25.22 -13.1 8.5 75 -16.5 2.2
04:55 1024 30.24 854 25.22 -12.8 9 74 -16.5 2.3
05:00 1024 30.24 854 25.22 -12.7 9.2 74 -16.5 2.3
05:05 1024 30.24 854 25.22 -12.6 9.3 74 -16.4 2.5
05:10 1024 30.24 854 25.22 -12.7 9.1 74 -16.4 2.5
05:15 1024 30.24 854 25.22 -13.1 8.5 76 -16.4 2.5
05:20 1024 30.24 854 25.22 -13 8.5 75 -16.5 2.3
05:25 1024 30.24 854 25.22 -12.9 8.9 76 -16.2 2.8
05:30 1024 30.24 854 25.22 -12.5 9.6 73 -16.3 2.6
05:35 1024 30.24 854 25.22 -12.7 9.1 74 -16.4 2.4
05:40 1024 30.24 854 25.22 -12.7 9.2 74 -16.4 2.5
05:45 1024 30.24 854 25.22 -12.6 9.4 75 -16.2 2.9
05:50 1024 30.24 853 25.19 -12.6 9.3 77 -15.9 3.3
05:55 1024 30.24 853 25.19 -12.6 9.4 74 -16.2 2.8
06:00 1024 30.24 854 25.22 -12.1 10.2 73 -16.1 3.1
06:05 1024 30.24 853 25.19 -12.1 10.2 73 -16 3.1
06:10 1024 30.24 853 25.19 -12.2 10 74 -16 3.3
06:15 1024 30.24 853 25.19 -12.1 10.2 73 -16 3.1
06:20 1024 30.24 853 25.19 -12.2 10 73 -16.2 2.9
06:25 1024 30.24 853 25.19 -12.6 9.3 75 -16.1 3
06:30 1024 30.24 854 25.22 -12.5 9.5 76 -16 3.3
06:35 1024 30.24 854 25.22 -12.1 10.1 74 -15.8 3.5
06:40 1024 30.24 854 25.22 -12 10.4 74 -15.7 3.7
06:45 1024 30.24 853 25.19 -11.8 10.8 74 -15.6 4
06:50 1024 30.24 854 25.22 -11.7 10.9 74 -15.4 4.2
06:55 1024 30.24 854 25.22 -11.8 10.8 75 -15.4 4.3
07:00 1024 30.24 854 25.22 -11.8 10.8 75 -15.4 4.3
07:05 1024 30.24 854 25.22 -11.6 11.1 74 -15.4 4.2
07:10 1024 30.24 854 25.22 -11.5 11.3 74 -15.3 4.5
07:15 1024 30.24 853 25.19 -11.8 10.9 75 -15.3 4.5
07:20 1024 30.24 853 25.19 -12 10.4 76 -15.5 4.1
07:25 1024 30.24 853 25.19 -12.2 10.1 77 -15.5 4.1
07:30 1024 30.24 853 25.19 -12.1 10.2 75 -15.7 3.8
07:35 1024 30.24 853 25.19 -11.5 11.3 75 -15.1 4.7
07:40 1024 30.24 853 25.19 -11.2 11.8 72 -15.3 4.5
07:45 1024 30.24 853 25.19 -11.3 11.6 74 -15.1 4.7
07:50 1024 30.24 853 25.19 -11.4 11.4 74 -15.2 4.6
07:55 1024 30.24 853 25.19 -11.4 11.4 74 -15.2 4.6
08:00 1024 30.24 853 25.19 -11.4 11.4 74 -15.2 4.6
08:05 1024 30.24 853 25.19 -11.2 11.9 74 -15 5
08:10 1024 30.24 853 25.19 -11 12.2 73 -14.9 5.2
08:15 1023 30.21 853 25.19 -10.9 12.5 73 -14.7 5.5
08:20 1023 30.21 853 25.19 -10.9 12.4 75 -14.5 5.9
08:25 1023 30.21 853 25.19 -10.7 12.8 75 -14.4 6.2
08:30 1023 30.21 853 25.19 -10.3 13.5 72 -14.4 6.1
08:35 1023 30.21 853 25.19 -9.8 14.3 70 -14.3 6.3
08:40 1023 30.21 853 25.19 -9.5 15 69 -14.1 6.6
08:45 1023 30.21 853 25.19 -9.3 15.2 70 -13.8 7.2
08:50 1023 30.21 852 25.16 -9.2 15.5 69 -13.9 6.9
08:55 1023 30.21 852 25.16 -8.9 15.9 69 -13.6 7.5
09:00 1023 30.21 852 25.16 -9.1 15.6 69 -13.7 7.3
09:05 1023 30.21 852 25.16 -9.2 15.5 68 -14.1 6.7
09:10 1023 30.21 852 25.16 -8.6 16.5 63 -14.5 5.9
09:15 1023 30.21 853 25.19 -8.3 17.1 66 -13.5 7.6
09:20 1023 30.21 853 25.19 -8.4 16.9 69 -13.2 8.3
09:25 1023 30.21 852 25.16 -8.1 17.5 67 -13.2 8.2
09:30 1023 30.21 852 25.16 -7.5 18.4 63 -13.4 7.8
09:35 1023 30.21 852 25.16 -7.2 19.1 63 -13 8.6
09:40 1023 30.21 852 25.16 -7.1 19.2 67 -12.3 9.9
09:45 1023 30.21 852 25.16 -7.3 18.9 66 -12.7 9.2
09:50 1023 30.21 852 25.16 -7.6 18.4 68 -12.4 9.7
09:55 1023 30.21 852 25.16 -7.3 18.8 66 -12.7 9.1
10:00 1023 30.21 852 25.16 -7.4 18.7 66 -12.7 9.1
10:05 1023 30.21 852 25.16 -7.3 18.9 64 -13 8.6
10:10 1023 30.21 852 25.16 -6.9 19.5 64 -12.7 9.1
10:15 1023 30.21 852 25.16 -6.3 20.7 61 -12.5 9.5
10:20 1023 30.21 852 25.16 -5.8 21.6 60 -12.4 9.8
10:25 1023 30.21 852 25.16 -5.8 21.6 61 -12.1 10.2
10:30 1023 30.21 852 25.16 -5.7 21.7 61 -12 10.3
10:35 1023 30.21 852 25.16 -5.3 22.4 60 -11.9 10.6
10:40 1023 30.21 852 25.16 -5.3 22.5 58 -12.3 9.9
10:45 1023 30.21 852 25.16 -5.3 22.5 59 -12 10.4
10:50 1023 30.21 852 25.16 -4.8 23.4 57 -12.1 10.2
10:55 1023 30.21 852 25.16 -4.5 23.8 54 -12.6 9.3
11:00 1023 30.21 852 25.16 -4.4 24.1 52 -12.8 8.9
11:05 1023 30.21 852 25.16 -4.2 24.4 51 -12.9 8.8
11:10 1023 30.21 852 25.16 -3.8 25.2 48 -13.4 7.9
11:15 1023 30.21 852 25.16 -3.5 25.8 45 -13.7 7.3
11:20 1023 30.21 852 25.16 -3.1 26.3 45 -13.5 7.7
11:25 1022 30.18 852 25.16 -3.8 25.2 46 -13.7 7.4
11:30 1023 30.21 852 25.16 -3.8 25.1 44 -14.4 6
11:35 1022 30.18 852 25.16 -3.7 25.4 47 -13.3 8
11:40 1022 30.18 852 25.16 -3.3 26.1 48 -12.9 8.8
11:45 1022 30.18 852 25.16 -2.9 26.7 48 -12.5 9.5
11:50 1022 30.18 852 25.16 -4.3 24.2 53 -12.6 9.3
11:55 1022 30.18 851 25.13 -5.1 22.8 52 -13.6 7.6
12:00 1022 30.18 851 25.13 -5.6 21.9 49 -14.6 5.7
12:05 1022 30.18 851 25.13 -5.3 22.5 51 -13.9 7
12:10 1022 30.18 851 25.13 -5.1 22.8 50 -14.1 6.7
12:15 1022 30.18 851 25.13 -4.6 23.7 50 -13.4 7.8
12:20 1022 30.18 851 25.13 -4.5 23.9 47 -14.2 6.5
12:25 1022 30.18 851 25.13 -4.1 24.6 50 -13.1 8.5
12:30 1022 30.18 851 25.13 -3.7 25.4 46 -13.7 7.3
12:35 1022 30.18 851 25.13 -3.7 25.3 45 -14 6.8
12:40 1022 30.18 851 25.13 -3.7 25.3 43 -14.7 5.6
12:45 1022 30.18 851 25.13 -4 24.9 43 -14.7 5.5
12:50 1022 30.18 851 25.13 -4.1 24.6 44 -14.5 5.8
12:55 1022 30.18 851 25.13 -3.9 25 48 -13.3 8
13:00 1021 30.15 851 25.13 -3.2 26.3 47 -13.1 8.5
13:05 1021 30.15 851 25.13 -2 28.4 44 -12.9 8.9
13:10 1021 30.15 851 25.13 -2.1 28.2 44 -12.8 8.9
13:15 1021 30.15 850 25.1 -2.4 27.6 45 -12.8 8.9
13:20 1021 30.15 850 25.1 -2.8 27 46 -12.7 9.1
13:25 1021 30.15 850 25.1 -2.7 27.1 44 -13.3 8
13:30 1021 30.15 850 25.1 -2.1 28.1 42 -13.4 7.8
13:35 1021 30.15 850 25.1 -2.1 28.3 48 -11.6 11.1
13:40 1021 30.15 850 25.1 -1.7 29 48 -11.2 11.8
13:45 1021 30.15 850 25.1 -1.8 28.7 51 -10.7 12.8
13:50 1021 30.15 850 25.1 -2.7 27.2 55 -10.5 13.1
13:55 1021 30.15 850 25.1 -3.1 26.4 55 -11 12.2
14:00 1021 30.15 850 25.1 -3.7 25.3 58 -10.8 12.5
14:05 1021 30.15 850 25.1 -4.3 24.3 60 -10.8 12.5
14:10 1021 30.15 850 25.1 -4.7 23.6 62 -11 12.3
14:15 1021 30.15 850 25.1 -4.9 23.3 63 -10.9 12.5
14:20 1021 30.15 850 25.1 -4.8 23.4 62 -11 12.3
14:25 1021 30.15 850 25.1 -4.8 23.4 62 -11 12.2
14:30 1021 30.15 850 25.1 -4.8 23.4 62 -11.1 12.1
14:35 1021 30.15 850 25.1 -4.8 23.3 61 -11.2 11.9
14:40 1021 30.15 850 25.1 -5 23 63 -11.1 12.1
14:45 1021 30.15 850 25.1 -4.9 23.1 63 -10.9 12.3
14:50 1020 30.12 850 25.1 -4.8 23.4 62 -11 12.2
14:55 1020 30.12 850 25.1 -4.6 23.7 60 -11.3 11.7
15:00 1020 30.12 850 25.1 -4.9 23.2 63 -10.9 12.3
15:05 1020 30.12 849 25.07 -5 23.1 61 -11.3 11.7
15:10 1020 30.12 850 25.1 -4.9 23.2 62 -11 12.2
15:15 1020 30.12 850 25.1 -4.6 23.7 61 -11 12.2
15:20 1020 30.12 850 25.1 -4.4 24.2 63 -10.5 13.1
15:25 1020 30.12 850 25.1 -4.3 24.3 62 -10.6 13
15:30 1020 30.12 850 25.1 -4.5 23.9 64 -10.3 13.4
15:35 1020 30.12 850 25.1 -4.6 23.8 62 -10.7 12.8
15:40 1020 30.12 849 25.07 -4.8 23.3 63 -10.7 12.7
15:45 1020 30.12 849 25.07 -4.8 23.3 64 -10.6 13
15:50 1020 30.12 849 25.07 -4.8 23.3 63 -10.9 12.4
15:55 1020 30.12 849 25.07 -4.9 23.2 63 -10.9 12.4
16:00 1020 30.12 849 25.07 -5 23 63 -10.9 12.3
16:05 1020 30.12 849 25.07 -5 22.9 63 -11 12.1
16:10 1020 30.12 849 25.07 -5 23 62 -11.2 11.9
16:15 1020 30.12 849 25.07 -4.9 23.1 62 -11.2 11.9
16:20 1020 30.12 849 25.07 -4.9 23.2 59 -11.6 11.1
16:25 1020 30.12 849 25.07 -4.9 23.3 60 -11.5 11.2
16:30 1020 30.12 849 25.07 -4.8 23.4 61 -11.2 11.9
16:35 1020 30.12 849 25.07 -4.8 23.4 60 -11.5 11.2
16:40 1020 30.12 849 25.07 -4.8 23.3 60 -11.5 11.3
16:45 1020 30.12 850 25.1 -4.8 23.3 62 -10.9 12.3
16:50 1020 30.12 850 25.1 -4.8 23.4 62 -11 12.1
16:55 1020 30.12 850 25.1 -4.7 23.5 63 -10.8 12.6
17:00 1020 30.12 850 25.1 -4.6 23.7 61 -11 12.2
17:05 1020 30.12 850 25.1 -4.6 23.8 62 -10.8 12.5
17:10 1020 30.12 850 25.1 -4.6 23.8 59 -11.3 11.6
17:15 1020 30.12 850 25.1 -4.6 23.7 55 -12.3 9.8
17:20 1020 30.12 849 25.07 -4.7 23.5 57 -12.1 10.2
17:25 1020 30.12 849 25.07 -4.7 23.5 60 -11.4 11.5
17:30 1020 30.12 849 25.07 -4.8 23.4 65 -10.5 13.2
17:35 1020 30.12 849 25.07 -4.9 23.1 65 -10.6 12.9
17:40 1020 30.12 849 25.07 -4.9 23.1 62 -11.2 11.9
17:45 1020 30.12 849 25.07 -5 23.1 62 -11.1 12
17:50 1020 30.12 849 25.07 -5 22.9 61 -11.4 11.4
17:55 1020 30.12 849 25.07 -5.1 22.8 64 -10.9 12.5
18:00 1020 30.12 849 25.07 -5.2 22.6 64 -11.1 12
18:05 1020 30.12 849 25.07 -5.2 22.6 66 -10.7 12.7
18:10 1020 30.12 849 25.07 -5.2 22.6 66 -10.5 13
18:15 1020 30.12 849 25.07 -5.3 22.4 67 -10.5 13.1
18:20 1019 30.09 849 25.07 -5.4 22.3 68 -10.5 13.1
18:25 1019 30.09 849 25.07 -5.4 22.2 69 -10.2 13.7
18:30 1019 30.09 849 25.07 -5.5 22.1 69 -10.3 13.4
18:35 1019 30.09 849 25.07 -5.5 22 71 -10 14
18:40 1019 30.09 849 25.07 -5.6 21.9 72 -9.9 14.2
18:45 1019 30.09 849 25.07 -5.4 22.2 65 -10.9 12.3
18:50 1019 30.09 849 25.07 -5.1 22.8 61 -11.6 11.2
18:55 1020 30.12 849 25.07 -5.1 22.8 65 -10.7 12.8
19:00 1020 30.12 849 25.07 -5.3 22.5 64 -11 12.3
19:05 1019 30.09 849 25.07 -5.2 22.7 68 -10.2 13.7
19:10 1020 30.12 849 25.07 -5.4 22.3 69 -10.2 13.7
19:15 1019 30.09 849 25.07 -5.7 21.7 72 -10 13.9
19:20 1019 30.09 849 25.07 -5.9 21.4 75 -9.6 14.7
19:25 1019 30.09 849 25.07 -6 21.2 77 -9.5 15
19:30 1019 30.09 848 25.04 -6.1 21 75 -9.8 14.3
19:35 1019 30.09 848 25.04 -6.2 20.8 72 -10.4 13.3
19:40 1019 30.09 848 25.04 -6.1 21 71 -10.5 13.1
19:45 1019 30.09 848 25.04 -6 21.1 71 -10.5 13
19:50 1019 30.09 848 25.04 -5.9 21.4 69 -10.8 12.6
19:55 1019 30.09 848 25.04 -5.7 21.8 64 -11.4 11.4
20:00 1019 30.09 848 25.04 -5.3 22.4 65 -10.9 12.5
20:05 1019 30.09 848 25.04 -5.1 22.8 67 -10.4 13.2
20:10 1019 30.09 848 25.04 -5.3 22.5 69 -10.1 13.8
20:15 1019 30.09 848 25.04 -5.6 21.9 69 -10.5 13.1
20:20 1019 30.09 848 25.04 -5.8 21.6 70 -10.4 13.2
20:25 1019 30.09 848 25.04 -6 21.2 71 -10.4 13.2
20:30 1019 30.09 848 25.04 -5.9 21.3 69 -10.7 12.8
20:35 1019 30.09 848 25.04 -5.8 21.6 66 -11.1 12
20:40 1019 30.09 848 25.04 -5.6 21.9 66 -11 12.3
20:45 1019 30.09 848 25.04 -5.4 22.2 68 -10.5 13.1
20:50 1019 30.09 848 25.04 -5.4 22.3 67 -10.5 13
20:55 1019 30.09 848 25.04 -5.5 22.1 68 -10.4 13.3
21:00 1019 30.09 848 25.04 -5.7 21.8 66 -11.1 12
21:05 1018 30.06 848 25.04 -5.5 22.2 68 -10.4 13.3
21:10 1018 30.06 848 25.04 -5.7 21.8 71 -10.1 13.8
21:15 1018 30.06 848 25.04 -6 21.2 70 -10.6 12.9
21:20 1018 30.06 848 25.04 -6 21.3 70 -10.6 12.9
21:25 1018 30.06 848 25.04 -6 21.2 71 -10.5 13.2
21:30 1018 30.06 848 25.04 -6.1 21 72 -10.4 13.3
21:35 1018 30.06 848 25.04 -6.2 20.9 73 -10.3 13.4
21:40 1018 30.06 848 25.04 -6.2 20.9 74 -10.2 13.7
21:45 1019 30.09 848 25.04 -6.3 20.6 74 -10.1 13.7
21:50 1018 30.06 848 25.04 -6.6 20.1 76 -10.2 13.7
21:55 1018 30.06 848 25.04 -6.8 19.8 76 -10.4 13.3
22:00 1018 30.06 848 25.04 -6.5 20.3 74 -10.4 13.3
22:05 1019 30.09 848 25.04 -6.5 20.4 74 -10.3 13.4
22:10 1018 30.06 848 25.04 -6.7 20 75 -10.5 13.2
22:15 1018 30.06 848 25.04 -6.4 20.4 72 -10.7 12.8
22:20 1019 30.09 848 25.04 -6.5 20.4 75 -10.2 13.7
22:25 1018 30.06 848 25.04 -6.6 20.1 75 -10.3 13.4
22:30 1018 30.06 848 25.04 -6.5 20.4 74 -10.3 13.4
22:35 1018 30.06 848 25.04 -6.2 20.8 74 -10.1 13.7
22:40 1018 30.06 848 25.04 -6.9 19.7 77 -10.2 13.6
22:45 1018 30.06 848 25.04 -6.7 19.9 70 -11.4 11.5
22:50 1018 30.06 848 25.04 -6 21.2 69 -10.8 12.6
22:55 1018 30.06 847 25.01 -5.1 22.9 65 -10.7 12.7
23:00 1018 30.06 848 25.04 -5.2 22.6 66 -10.7 12.7
23:05 1018 30.06 848 25.04 -6.3 20.6 71 -10.9 12.5
23:10 1018 30.06 848 25.04 -6.6 20.1 69 -11.3 11.7
23:15 1018 30.06 848 25.04 -6.8 19.8 72 -11 12.1
23:20 1018 30.06 848 25.04 -6.6 20.2 70 -11.1 12
23:25 1018 30.06 848 25.04 -6.6 20.1 70 -11.1 11.9
23:30 1018 30.06 848 25.04 -6.3 20.7 69 -11.1 12.1
23:35 1018 30.06 847 25.01 -6 21.2 68 -10.9 12.3
23:40 1018 30.06 847 25.01 -6.1 21 69 -10.9 12.5
23:45 1018 30.06 847 25.01 -6 21.3 68 -10.9 12.4
23:50 1018 30.06 847 25.01 -6 21.1 71 -10.6 13
23:55 1018 30.06 847 25.01 -6.5 20.2 72 -10.7 12.7
24:00 1018 30.06 847 25.01 -6.2 20.9 71 -10.6 13